sensor_id;sensor_type;location;lat;lon;timestamp;P1;durP1;ratioP1;P2;durP2;ratioP2
52512;SDS011;38422;53.172;6.974;2023-07-22T00:02:25;9.45;;;4.55;;
52512;SDS011;38422;53.172;6.974;2023-07-22T00:04:50;8.43;;;4.00;;
52512;SDS011;38422;53.172;6.974;2023-07-22T00:07:17;7.28;;;3.70;;
52512;SDS011;38422;53.172;6.974;2023-07-22T00:09:43;8.57;;;4.57;;
52512;SDS011;38422;53.172;6.974;2023-07-22T00:12:09;9.88;;;4.60;;
52512;SDS011;38422;53.172;6.974;2023-07-22T00:14:39;7.25;;;4.00;;
52512;SDS011;38422;53.172;6.974;2023-07-22T00:17:06;7.47;;;4.35;;
52512;SDS011;38422;53.172;6.974;2023-07-22T00:19:32;8.18;;;4.45;;
52512;SDS011;38422;53.172;6.974;2023-07-22T00:21:59;8.60;;;4.10;;
52512;SDS011;38422;53.172;6.974;2023-07-22T00:24:24;6.88;;;4.25;;
52512;SDS011;38422;53.172;6.974;2023-07-22T00:26:50;7.55;;;4.00;;
52512;SDS011;38422;53.172;6.974;2023-07-22T00:29:16;7.85;;;3.97;;
52512;SDS011;38422;53.172;6.974;2023-07-22T00:31:42;6.57;;;4.00;;
52512;SDS011;38422;53.172;6.974;2023-07-22T00:34:08;8.88;;;4.18;;
52512;SDS011;38422;53.172;6.974;2023-07-22T00:36:34;8.30;;;4.30;;
52512;SDS011;38422;53.172;6.974;2023-07-22T00:39:00;6.68;;;3.70;;
52512;SDS011;38422;53.172;6.974;2023-07-22T00:41:26;9.43;;;4.13;;
52512;SDS011;38422;53.172;6.974;2023-07-22T00:43:52;7.53;;;4.00;;
52512;SDS011;38422;53.172;6.974;2023-07-22T00:46:18;7.82;;;3.47;;
52512;SDS011;38422;53.172;6.974;2023-07-22T00:48:43;7.30;;;4.03;;
52512;SDS011;38422;53.172;6.974;2023-07-22T00:51:10;7.18;;;3.80;;
52512;SDS011;38422;53.172;6.974;2023-07-22T00:53:36;7.15;;;4.15;;
52512;SDS011;38422;53.172;6.974;2023-07-22T00:56:01;8.77;;;4.63;;
52512;SDS011;38422;53.172;6.974;2023-07-22T00:58:27;6.45;;;3.92;;
52512;SDS011;38422;53.172;6.974;2023-07-22T01:00:53;6.53;;;3.90;;
52512;SDS011;38422;53.172;6.974;2023-07-22T01:03:19;7.63;;;4.50;;
52512;SDS011;38422;53.172;6.974;2023-07-22T01:05:45;5.90;;;3.60;;
52512;SDS011;38422;53.172;6.974;2023-07-22T01:08:13;6.22;;;3.90;;
52512;SDS011;38422;53.172;6.974;2023-07-22T01:10:39;8.48;;;4.32;;
52512;SDS011;38422;53.172;6.974;2023-07-22T01:13:04;7.05;;;4.00;;
52512;SDS011;38422;53.172;6.974;2023-07-22T01:15:30;8.02;;;4.15;;
52512;SDS011;38422;53.172;6.974;2023-07-22T01:17:56;8.05;;;3.50;;
52512;SDS011;38422;53.172;6.974;2023-07-22T01:20:26;8.27;;;3.75;;
52512;SDS011;38422;53.172;6.974;2023-07-22T01:22:54;8.27;;;3.85;;
52512;SDS011;38422;53.172;6.974;2023-07-22T01:25:21;7.20;;;3.40;;
52512;SDS011;38422;53.172;6.974;2023-07-22T01:27:48;6.47;;;3.72;;
52512;SDS011;38422;53.172;6.974;2023-07-22T01:30:14;7.43;;;3.58;;
52512;SDS011;38422;53.172;6.974;2023-07-22T01:32:40;5.78;;;3.13;;
52512;SDS011;38422;53.172;6.974;2023-07-22T01:35:06;6.15;;;3.17;;
52512;SDS011;38422;53.172;6.974;2023-07-22T01:37:33;8.23;;;3.20;;
52512;SDS011;38422;53.172;6.974;2023-07-22T01:39:59;7.07;;;3.13;;
52512;SDS011;38422;53.172;6.974;2023-07-22T01:42:25;5.00;;;2.78;;
52512;SDS011;38422;53.172;6.974;2023-07-22T01:44:52;5.72;;;3.10;;
52512;SDS011;38422;53.172;6.974;2023-07-22T01:47:18;5.35;;;2.80;;
52512;SDS011;38422;53.172;6.974;2023-07-22T01:49:44;6.53;;;2.95;;
52512;SDS011;38422;53.172;6.974;2023-07-22T01:52:10;5.95;;;2.95;;
52512;SDS011;38422;53.172;6.974;2023-07-22T01:54:35;6.03;;;2.90;;
52512;SDS011;38422;53.172;6.974;2023-07-22T01:57:01;5.03;;;2.97;;
52512;SDS011;38422;53.172;6.974;2023-07-22T01:59:27;4.65;;;2.65;;
52512;SDS011;38422;53.172;6.974;2023-07-22T02:01:53;6.03;;;2.90;;
52512;SDS011;38422;53.172;6.974;2023-07-22T02:04:18;5.55;;;2.90;;
52512;SDS011;38422;53.172;6.974;2023-07-22T02:06:44;5.47;;;2.85;;
52512;SDS011;38422;53.172;6.974;2023-07-22T02:09:11;6.20;;;2.80;;
52512;SDS011;38422;53.172;6.974;2023-07-22T02:11:38;5.18;;;2.95;;
52512;SDS011;38422;53.172;6.974;2023-07-22T02:14:04;5.45;;;2.88;;
52512;SDS011;38422;53.172;6.974;2023-07-22T02:16:33;5.55;;;3.00;;
52512;SDS011;38422;53.172;6.974;2023-07-22T02:19:02;6.82;;;2.95;;
52512;SDS011;38422;53.172;6.974;2023-07-22T02:21:28;5.90;;;2.80;;
52512;SDS011;38422;53.172;6.974;2023-07-22T02:23:54;6.82;;;3.42;;
52512;SDS011;38422;53.172;6.974;2023-07-22T02:26:20;6.57;;;2.75;;
52512;SDS011;38422;53.172;6.974;2023-07-22T02:28:46;6.38;;;3.20;;
52512;SDS011;38422;53.172;6.974;2023-07-22T02:31:12;7.40;;;3.35;;
52512;SDS011;38422;53.172;6.974;2023-07-22T02:33:37;5.38;;;2.75;;
52512;SDS011;38422;53.172;6.974;2023-07-22T02:36:03;8.10;;;3.63;;
52512;SDS011;38422;53.172;6.974;2023-07-22T02:38:29;6.68;;;3.47;;
52512;SDS011;38422;53.172;6.974;2023-07-22T02:40:59;6.30;;;3.03;;
52512;SDS011;38422;53.172;6.974;2023-07-22T02:43:27;4.85;;;2.92;;
52512;SDS011;38422;53.172;6.974;2023-07-22T02:45:53;6.22;;;3.28;;
52512;SDS011;38422;53.172;6.974;2023-07-22T02:48:20;5.22;;;2.95;;
52512;SDS011;38422;53.172;6.974;2023-07-22T02:50:45;6.28;;;3.50;;
52512;SDS011;38422;53.172;6.974;2023-07-22T02:53:11;6.97;;;3.40;;
52512;SDS011;38422;53.172;6.974;2023-07-22T02:55:37;5.13;;;3.17;;
52512;SDS011;38422;53.172;6.974;2023-07-22T02:58:03;5.55;;;3.42;;
52512;SDS011;38422;53.172;6.974;2023-07-22T03:00:29;7.43;;;3.83;;
52512;SDS011;38422;53.172;6.974;2023-07-22T03:02:56;5.75;;;3.67;;
52512;SDS011;38422;53.172;6.974;2023-07-22T03:05:28;7.20;;;3.78;;
52512;SDS011;38422;53.172;6.974;2023-07-22T03:07:54;6.40;;;3.78;;
52512;SDS011;38422;53.172;6.974;2023-07-22T03:10:21;6.55;;;3.72;;
52512;SDS011;38422;53.172;6.974;2023-07-22T03:12:47;8.25;;;4.03;;
52512;SDS011;38422;53.172;6.974;2023-07-22T03:15:12;6.35;;;3.53;;
52512;SDS011;38422;53.172;6.974;2023-07-22T03:17:39;6.43;;;3.63;;
52512;SDS011;38422;53.172;6.974;2023-07-22T03:20:08;7.07;;;4.13;;
52512;SDS011;38422;53.172;6.974;2023-07-22T03:22:42;8.52;;;4.00;;
52512;SDS011;38422;53.172;6.974;2023-07-22T03:25:08;6.88;;;3.63;;
52512;SDS011;38422;53.172;6.974;2023-07-22T03:27:35;6.95;;;3.70;;
52512;SDS011;38422;53.172;6.974;2023-07-22T03:30:05;6.45;;;3.42;;
52512;SDS011;38422;53.172;6.974;2023-07-22T03:32:32;6.75;;;4.20;;
52512;SDS011;38422;53.172;6.974;2023-07-22T03:34:59;6.35;;;4.20;;
52512;SDS011;38422;53.172;6.974;2023-07-22T03:37:24;6.88;;;3.85;;
52512;SDS011;38422;53.172;6.974;2023-07-22T03:39:50;5.85;;;3.30;;
52512;SDS011;38422;53.172;6.974;2023-07-22T03:42:16;5.95;;;3.63;;
52512;SDS011;38422;53.172;6.974;2023-07-22T03:44:42;7.50;;;3.97;;
52512;SDS011;38422;53.172;6.974;2023-07-22T03:47:07;7.10;;;3.78;;
52512;SDS011;38422;53.172;6.974;2023-07-22T03:49:33;7.20;;;4.05;;
52512;SDS011;38422;53.172;6.974;2023-07-22T03:51:59;6.97;;;3.65;;
52512;SDS011;38422;53.172;6.974;2023-07-22T03:54:24;7.60;;;3.78;;
52512;SDS011;38422;53.172;6.974;2023-07-22T03:56:50;8.10;;;3.90;;
52512;SDS011;38422;53.172;6.974;2023-07-22T03:59:15;7.40;;;3.65;;
52512;SDS011;38422;53.172;6.974;2023-07-22T04:01:41;7.28;;;3.88;;
52512;SDS011;38422;53.172;6.974;2023-07-22T04:04:08;7.15;;;3.60;;
52512;SDS011;38422;53.172;6.974;2023-07-22T04:06:34;8.32;;;3.72;;
52512;SDS011;38422;53.172;6.974;2023-07-22T04:08:59;6.75;;;3.90;;
52512;SDS011;38422;53.172;6.974;2023-07-22T04:11:28;6.50;;;3.38;;
52512;SDS011;38422;53.172;6.974;2023-07-22T04:13:53;7.70;;;3.80;;
52512;SDS011;38422;53.172;6.974;2023-07-22T04:16:19;8.63;;;4.55;;
52512;SDS011;38422;53.172;6.974;2023-07-22T04:18:45;6.85;;;3.47;;
52512;SDS011;38422;53.172;6.974;2023-07-22T04:21:11;7.75;;;3.95;;
52512;SDS011;38422;53.172;6.974;2023-07-22T04:23:36;7.78;;;4.07;;
52512;SDS011;38422;53.172;6.974;2023-07-22T04:26:02;7.80;;;4.85;;
52512;SDS011;38422;53.172;6.974;2023-07-22T04:28:33;8.10;;;4.10;;
52512;SDS011;38422;53.172;6.974;2023-07-22T04:33:25;9.10;;;4.78;;
52512;SDS011;38422;53.172;6.974;2023-07-22T04:35:53;9.70;;;4.68;;
52512;SDS011;38422;53.172;6.974;2023-07-22T04:38:20;10.07;;;5.03;;
52512;SDS011;38422;53.172;6.974;2023-07-22T04:40:46;8.98;;;4.80;;
52512;SDS011;38422;53.172;6.974;2023-07-22T04:43:12;9.05;;;4.95;;
52512;SDS011;38422;53.172;6.974;2023-07-22T04:45:38;12.88;;;6.05;;
52512;SDS011;38422;53.172;6.974;2023-07-22T04:48:05;8.57;;;4.72;;
52512;SDS011;38422;53.172;6.974;2023-07-22T04:50:32;8.63;;;4.90;;
52512;SDS011;38422;53.172;6.974;2023-07-22T04:52:58;10.55;;;5.00;;
52512;SDS011;38422;53.172;6.974;2023-07-22T04:55:24;11.55;;;5.55;;
52512;SDS011;38422;53.172;6.974;2023-07-22T04:57:51;10.05;;;5.25;;
52512;SDS011;38422;53.172;6.974;2023-07-22T05:00:17;8.40;;;4.82;;
52512;SDS011;38422;53.172;6.974;2023-07-22T05:02:44;8.07;;;4.82;;
52512;SDS011;38422;53.172;6.974;2023-07-22T05:05:13;9.95;;;5.00;;
52512;SDS011;38422;53.172;6.974;2023-07-22T05:07:39;8.52;;;5.20;;
52512;SDS011;38422;53.172;6.974;2023-07-22T05:10:06;10.40;;;5.15;;
52512;SDS011;38422;53.172;6.974;2023-07-22T05:12:37;8.77;;;4.80;;
52512;SDS011;38422;53.172;6.974;2023-07-22T05:15:04;8.93;;;4.93;;
52512;SDS011;38422;53.172;6.974;2023-07-22T05:17:30;8.20;;;4.72;;
52512;SDS011;38422;53.172;6.974;2023-07-22T05:19:57;9.88;;;4.82;;
52512;SDS011;38422;53.172;6.974;2023-07-22T05:22:23;8.90;;;4.97;;
52512;SDS011;38422;53.172;6.974;2023-07-22T05:24:49;8.23;;;4.60;;
52512;SDS011;38422;53.172;6.974;2023-07-22T05:27:15;8.05;;;4.80;;
52512;SDS011;38422;53.172;6.974;2023-07-22T05:29:42;10.10;;;4.93;;
52512;SDS011;38422;53.172;6.974;2023-07-22T05:32:07;8.60;;;4.97;;
52512;SDS011;38422;53.172;6.974;2023-07-22T05:34:33;11.07;;;5.30;;
52512;SDS011;38422;53.172;6.974;2023-07-22T05:36:59;8.65;;;4.53;;
52512;SDS011;38422;53.172;6.974;2023-07-22T05:39:25;9.18;;;4.50;;
52512;SDS011;38422;53.172;6.974;2023-07-22T05:41:51;10.43;;;5.00;;
52512;SDS011;38422;53.172;6.974;2023-07-22T05:44:17;8.27;;;4.85;;
52512;SDS011;38422;53.172;6.974;2023-07-22T05:46:42;10.20;;;5.65;;
52512;SDS011;38422;53.172;6.974;2023-07-22T05:49:08;9.38;;;5.00;;
52512;SDS011;38422;53.172;6.974;2023-07-22T05:51:35;9.00;;;4.95;;
52512;SDS011;38422;53.172;6.974;2023-07-22T05:54:01;9.88;;;5.35;;
52512;SDS011;38422;53.172;6.974;2023-07-22T05:56:27;12.23;;;5.82;;
52512;SDS011;38422;53.172;6.974;2023-07-22T05:58:53;10.27;;;5.47;;
52512;SDS011;38422;53.172;6.974;2023-07-22T06:01:19;10.65;;;5.80;;
52512;SDS011;38422;53.172;6.974;2023-07-22T06:03:45;12.02;;;5.32;;
52512;SDS011;38422;53.172;6.974;2023-07-22T06:06:11;11.32;;;6.22;;
52512;SDS011;38422;53.172;6.974;2023-07-22T06:08:36;10.13;;;5.53;;
52512;SDS011;38422;53.172;6.974;2023-07-22T06:11:02;10.23;;;5.72;;
52512;SDS011;38422;53.172;6.974;2023-07-22T06:13:28;10.30;;;5.82;;
52512;SDS011;38422;53.172;6.974;2023-07-22T06:15:53;9.63;;;5.75;;
52512;SDS011;38422;53.172;6.974;2023-07-22T06:18:19;9.10;;;5.65;;
52512;SDS011;38422;53.172;6.974;2023-07-22T06:20:45;10.52;;;5.63;;
52512;SDS011;38422;53.172;6.974;2023-07-22T06:23:11;11.15;;;6.38;;
52512;SDS011;38422;53.172;6.974;2023-07-22T06:25:36;9.75;;;6.25;;
52512;SDS011;38422;53.172;6.974;2023-07-22T06:28:02;11.57;;;6.50;;
52512;SDS011;38422;53.172;6.974;2023-07-22T06:30:28;13.73;;;6.97;;
52512;SDS011;38422;53.172;6.974;2023-07-22T06:32:54;12.20;;;7.00;;
52512;SDS011;38422;53.172;6.974;2023-07-22T06:35:19;10.55;;;6.50;;
52512;SDS011;38422;53.172;6.974;2023-07-22T06:37:45;9.25;;;6.15;;
52512;SDS011;38422;53.172;6.974;2023-07-22T06:40:11;11.55;;;6.68;;
52512;SDS011;38422;53.172;6.974;2023-07-22T06:42:37;11.63;;;6.47;;
52512;SDS011;38422;53.172;6.974;2023-07-22T06:45:05;11.55;;;6.47;;
52512;SDS011;38422;53.172;6.974;2023-07-22T06:47:31;11.85;;;6.68;;
52512;SDS011;38422;53.172;6.974;2023-07-22T06:49:57;10.50;;;6.45;;
52512;SDS011;38422;53.172;6.974;2023-07-22T06:52:23;9.55;;;5.80;;
52512;SDS011;38422;53.172;6.974;2023-07-22T06:54:49;11.52;;;6.63;;
52512;SDS011;38422;53.172;6.974;2023-07-22T06:57:15;13.27;;;6.97;;
52512;SDS011;38422;53.172;6.974;2023-07-22T06:59:40;11.60;;;6.55;;
52512;SDS011;38422;53.172;6.974;2023-07-22T07:02:06;11.68;;;6.15;;
52512;SDS011;38422;53.172;6.974;2023-07-22T07:04:33;11.23;;;5.95;;
52512;SDS011;38422;53.172;6.974;2023-07-22T07:06:59;9.30;;;5.50;;
52512;SDS011;38422;53.172;6.974;2023-07-22T07:09:25;11.00;;;6.50;;
52512;SDS011;38422;53.172;6.974;2023-07-22T07:11:51;8.07;;;5.65;;
52512;SDS011;38422;53.172;6.974;2023-07-22T07:14:17;8.98;;;5.63;;
52512;SDS011;38422;53.172;6.974;2023-07-22T07:16:43;8.25;;;5.90;;
52512;SDS011;38422;53.172;6.974;2023-07-22T07:19:09;8.52;;;5.43;;
52512;SDS011;38422;53.172;6.974;2023-07-22T07:21:35;8.35;;;5.70;;
52512;SDS011;38422;53.172;6.974;2023-07-22T07:24:00;10.05;;;6.57;;
52512;SDS011;38422;53.172;6.974;2023-07-22T07:26:26;6.95;;;5.35;;
52512;SDS011;38422;53.172;6.974;2023-07-22T07:28:53;9.07;;;5.90;;
52512;SDS011;38422;53.172;6.974;2023-07-22T07:31:19;10.77;;;6.20;;
52512;SDS011;38422;53.172;6.974;2023-07-22T07:33:45;9.15;;;6.20;;
52512;SDS011;38422;53.172;6.974;2023-07-22T07:36:11;10.70;;;6.85;;
52512;SDS011;38422;53.172;6.974;2023-07-22T07:38:36;8.95;;;6.28;;
52512;SDS011;38422;53.172;6.974;2023-07-22T07:41:03;8.82;;;6.05;;
52512;SDS011;38422;53.172;6.974;2023-07-22T07:43:33;9.40;;;6.25;;
52512;SDS011;38422;53.172;6.974;2023-07-22T07:46:18;9.48;;;6.40;;
52512;SDS011;38422;53.172;6.974;2023-07-22T07:48:55;9.27;;;6.63;;
52512;SDS011;38422;53.172;6.974;2023-07-22T07:51:22;8.88;;;5.90;;
52512;SDS011;38422;53.172;6.974;2023-07-22T07:53:50;9.48;;;6.25;;
52512;SDS011;38422;53.172;6.974;2023-07-22T07:56:17;10.02;;;6.78;;
52512;SDS011;38422;53.172;6.974;2023-07-22T07:58:43;9.43;;;6.05;;
52512;SDS011;38422;53.172;6.974;2023-07-22T08:03:36;8.93;;;6.22;;
52512;SDS011;38422;53.172;6.974;2023-07-22T08:06:03;8.18;;;5.70;;
52512;SDS011;38422;53.172;6.974;2023-07-22T08:08:29;8.40;;;6.10;;
52512;SDS011;38422;53.172;6.974;2023-07-22T08:10:59;8.60;;;6.05;;
52512;SDS011;38422;53.172;6.974;2023-07-22T08:13:28;7.97;;;5.60;;
52512;SDS011;38422;53.172;6.974;2023-07-22T08:15:56;10.00;;;6.65;;
52512;SDS011;38422;53.172;6.974;2023-07-22T08:18:23;8.98;;;5.78;;
52512;SDS011;38422;53.172;6.974;2023-07-22T08:20:49;7.97;;;5.72;;
52512;SDS011;38422;53.172;6.974;2023-07-22T08:25:41;8.98;;;5.45;;
52512;SDS011;38422;53.172;6.974;2023-07-22T08:28:07;7.63;;;4.85;;
52512;SDS011;38422;53.172;6.974;2023-07-22T08:30:33;8.35;;;4.57;;
52512;SDS011;38422;53.172;6.974;2023-07-22T08:32:58;7.93;;;5.03;;
52512;SDS011;38422;53.172;6.974;2023-07-22T08:35:24;7.90;;;4.82;;
52512;SDS011;38422;53.172;6.974;2023-07-22T08:37:51;7.05;;;5.18;;
52512;SDS011;38422;53.172;6.974;2023-07-22T08:40:17;7.70;;;5.25;;
52512;SDS011;38422;53.172;6.974;2023-07-22T08:42:43;7.60;;;5.13;;
52512;SDS011;38422;53.172;6.974;2023-07-22T08:45:10;7.57;;;4.78;;
52512;SDS011;38422;53.172;6.974;2023-07-22T08:47:39;8.65;;;4.80;;
52512;SDS011;38422;53.172;6.974;2023-07-22T08:50:11;8.40;;;5.18;;
52512;SDS011;38422;53.172;6.974;2023-07-22T08:52:44;9.10;;;5.53;;
52512;SDS011;38422;53.172;6.974;2023-07-22T08:55:10;6.80;;;4.78;;
52512;SDS011;38422;53.172;6.974;2023-07-22T08:57:36;7.50;;;4.53;;
52512;SDS011;38422;53.172;6.974;2023-07-22T09:02:32;6.68;;;4.18;;
52512;SDS011;38422;53.172;6.974;2023-07-22T09:04:58;6.95;;;4.20;;
52512;SDS011;38422;53.172;6.974;2023-07-22T09:07:24;5.82;;;4.10;;
52512;SDS011;38422;53.172;6.974;2023-07-22T09:09:51;6.47;;;4.28;;
52512;SDS011;38422;53.172;6.974;2023-07-22T09:12:18;6.28;;;3.83;;
52512;SDS011;38422;53.172;6.974;2023-07-22T09:14:46;5.30;;;3.40;;
52512;SDS011;38422;53.172;6.974;2023-07-22T09:19:38;5.10;;;3.40;;
52512;SDS011;38422;53.172;6.974;2023-07-22T09:22:04;4.57;;;3.10;;
52512;SDS011;38422;53.172;6.974;2023-07-22T09:24:30;6.45;;;3.35;;
52512;SDS011;38422;53.172;6.974;2023-07-22T09:26:57;4.82;;;3.08;;
52512;SDS011;38422;53.172;6.974;2023-07-22T09:29:33;4.65;;;3.20;;
52512;SDS011;38422;53.172;6.974;2023-07-22T09:31:59;6.90;;;3.75;;
52512;SDS011;38422;53.172;6.974;2023-07-22T09:34:25;6.82;;;4.30;;
52512;SDS011;38422;53.172;6.974;2023-07-22T09:36:56;5.85;;;4.05;;
52512;SDS011;38422;53.172;6.974;2023-07-22T09:39:25;8.27;;;4.28;;
52512;SDS011;38422;53.172;6.974;2023-07-22T09:41:51;5.07;;;3.72;;
52512;SDS011;38422;53.172;6.974;2023-07-22T09:44:20;7.60;;;4.10;;
52512;SDS011;38422;53.172;6.974;2023-07-22T09:46:53;6.13;;;4.03;;
52512;SDS011;38422;53.172;6.974;2023-07-22T09:49:19;6.25;;;4.18;;
52512;SDS011;38422;53.172;6.974;2023-07-22T09:51:45;6.53;;;4.43;;
52512;SDS011;38422;53.172;6.974;2023-07-22T09:54:11;6.50;;;5.15;;
52512;SDS011;38422;53.172;6.974;2023-07-22T09:56:46;7.05;;;4.97;;
52512;SDS011;38422;53.172;6.974;2023-07-22T09:59:15;7.70;;;5.18;;
52512;SDS011;38422;53.172;6.974;2023-07-22T10:01:43;8.57;;;5.47;;
52512;SDS011;38422;53.172;6.974;2023-07-22T10:04:12;7.97;;;5.10;;
52512;SDS011;38422;53.172;6.974;2023-07-22T10:06:40;8.77;;;4.90;;
52512;SDS011;38422;53.172;6.974;2023-07-22T10:09:08;6.95;;;4.70;;
52512;SDS011;38422;53.172;6.974;2023-07-22T10:11:36;8.73;;;5.03;;
52512;SDS011;38422;53.172;6.974;2023-07-22T10:14:04;6.80;;;4.50;;
52512;SDS011;38422;53.172;6.974;2023-07-22T10:16:30;7.30;;;5.10;;
52512;SDS011;38422;53.172;6.974;2023-07-22T10:18:57;7.45;;;4.60;;
52512;SDS011;38422;53.172;6.974;2023-07-22T10:21:23;7.57;;;4.93;;
52512;SDS011;38422;53.172;6.974;2023-07-22T10:23:50;7.43;;;4.78;;
52512;SDS011;38422;53.172;6.974;2023-07-22T10:26:17;7.45;;;4.65;;
52512;SDS011;38422;53.172;6.974;2023-07-22T10:28:44;6.72;;;4.40;;
52512;SDS011;38422;53.172;6.974;2023-07-22T10:31:12;6.07;;;4.05;;
52512;SDS011;38422;53.172;6.974;2023-07-22T10:33:46;5.60;;;3.60;;
52512;SDS011;38422;53.172;6.974;2023-07-22T10:36:16;5.63;;;4.03;;
52512;SDS011;38422;53.172;6.974;2023-07-22T10:38:42;6.78;;;4.10;;
52512;SDS011;38422;53.172;6.974;2023-07-22T10:41:15;6.55;;;4.25;;
52512;SDS011;38422;53.172;6.974;2023-07-22T10:43:42;6.30;;;4.13;;
52512;SDS011;38422;53.172;6.974;2023-07-22T10:46:31;8.35;;;3.80;;
52512;SDS011;38422;53.172;6.974;2023-07-22T10:49:10;6.75;;;3.72;;
52512;SDS011;38422;53.172;6.974;2023-07-22T10:51:41;6.00;;;3.45;;
52512;SDS011;38422;53.172;6.974;2023-07-22T10:54:12;5.60;;;3.30;;
52512;SDS011;38422;53.172;6.974;2023-07-22T10:56:48;6.00;;;3.50;;
52512;SDS011;38422;53.172;6.974;2023-07-22T10:59:13;5.80;;;3.45;;
52512;SDS011;38422;53.172;6.974;2023-07-22T11:01:39;5.18;;;3.50;;
52512;SDS011;38422;53.172;6.974;2023-07-22T11:04:10;5.70;;;3.15;;
52512;SDS011;38422;53.172;6.974;2023-07-22T11:11:57;4.80;;;3.30;;
52512;SDS011;38422;53.172;6.974;2023-07-22T11:14:24;6.05;;;2.90;;
52512;SDS011;38422;53.172;6.974;2023-07-22T11:16:51;5.63;;;3.10;;
52512;SDS011;38422;53.172;6.974;2023-07-22T11:19:18;5.18;;;2.90;;
52512;SDS011;38422;53.172;6.974;2023-07-22T11:21:45;3.67;;;2.75;;
52512;SDS011;38422;53.172;6.974;2023-07-22T11:24:13;4.75;;;3.10;;
52512;SDS011;38422;53.172;6.974;2023-07-22T11:26:40;5.35;;;3.15;;
52512;SDS011;38422;53.172;6.974;2023-07-22T11:29:06;6.30;;;3.30;;
52512;SDS011;38422;53.172;6.974;2023-07-22T11:31:34;5.85;;;3.47;;
52512;SDS011;38422;53.172;6.974;2023-07-22T11:34:07;7.72;;;3.70;;
52512;SDS011;38422;53.172;6.974;2023-07-22T11:36:33;5.70;;;3.50;;
52512;SDS011;38422;53.172;6.974;2023-07-22T11:39:22;5.13;;;3.67;;
52512;SDS011;38422;53.172;6.974;2023-07-22T11:41:48;6.10;;;4.00;;
52512;SDS011;38422;53.172;6.974;2023-07-22T11:44:16;5.60;;;3.90;;
52512;SDS011;38422;53.172;6.974;2023-07-22T11:49:21;5.82;;;4.20;;
52512;SDS011;38422;53.172;6.974;2023-07-22T11:51:48;7.35;;;4.05;;
52512;SDS011;38422;53.172;6.974;2023-07-22T11:54:14;7.47;;;3.90;;
52512;SDS011;38422;53.172;6.974;2023-07-22T11:56:42;6.78;;;4.90;;
52512;SDS011;38422;53.172;6.974;2023-07-22T11:59:08;8.02;;;4.75;;
52512;SDS011;38422;53.172;6.974;2023-07-22T12:01:34;7.03;;;4.72;;
52512;SDS011;38422;53.172;6.974;2023-07-22T12:03:59;7.50;;;4.70;;
52512;SDS011;38422;53.172;6.974;2023-07-22T12:06:26;7.63;;;4.75;;
52512;SDS011;38422;53.172;6.974;2023-07-22T12:08:52;6.63;;;4.22;;
52512;SDS011;38422;53.172;6.974;2023-07-22T12:11:19;6.60;;;5.23;;
52512;SDS011;38422;53.172;6.974;2023-07-22T12:13:46;7.97;;;5.40;;
52512;SDS011;38422;53.172;6.974;2023-07-22T12:16:20;6.25;;;5.20;;
52512;SDS011;38422;53.172;6.974;2023-07-22T12:18:47;6.43;;;4.78;;
52512;SDS011;38422;53.172;6.974;2023-07-22T12:21:13;6.75;;;5.07;;
52512;SDS011;38422;53.172;6.974;2023-07-22T12:23:40;8.20;;;5.28;;
52512;SDS011;38422;53.172;6.974;2023-07-22T12:26:07;6.10;;;4.60;;
52512;SDS011;38422;53.172;6.974;2023-07-22T12:28:33;7.07;;;4.93;;
52512;SDS011;38422;53.172;6.974;2023-07-22T12:30:58;6.22;;;4.65;;
52512;SDS011;38422;53.172;6.974;2023-07-22T12:33:25;7.10;;;4.80;;
52512;SDS011;38422;53.172;6.974;2023-07-22T12:35:53;6.40;;;4.70;;
52512;SDS011;38422;53.172;6.974;2023-07-22T12:38:19;6.38;;;5.13;;
52512;SDS011;38422;53.172;6.974;2023-07-22T12:40:45;6.18;;;4.80;;
52512;SDS011;38422;53.172;6.974;2023-07-22T12:43:11;6.40;;;4.93;;
52512;SDS011;38422;53.172;6.974;2023-07-22T12:45:37;7.00;;;5.30;;
52512;SDS011;38422;53.172;6.974;2023-07-22T12:48:02;7.18;;;5.32;;
52512;SDS011;38422;53.172;6.974;2023-07-22T12:50:30;6.80;;;5.47;;
52512;SDS011;38422;53.172;6.974;2023-07-22T12:52:57;7.25;;;5.18;;
52512;SDS011;38422;53.172;6.974;2023-07-22T12:55:23;7.43;;;5.35;;
52512;SDS011;38422;53.172;6.974;2023-07-22T12:57:49;6.95;;;5.10;;
52512;SDS011;38422;53.172;6.974;2023-07-22T13:00:15;6.63;;;5.00;;
52512;SDS011;38422;53.172;6.974;2023-07-22T13:02:41;6.18;;;4.60;;
52512;SDS011;38422;53.172;6.974;2023-07-22T13:05:07;7.40;;;4.88;;
52512;SDS011;38422;53.172;6.974;2023-07-22T13:07:33;5.45;;;4.45;;
52512;SDS011;38422;53.172;6.974;2023-07-22T13:09:59;6.55;;;4.38;;
52512;SDS011;38422;53.172;6.974;2023-07-22T13:12:27;6.57;;;4.53;;
52512;SDS011;38422;53.172;6.974;2023-07-22T13:14:53;6.28;;;4.40;;
52512;SDS011;38422;53.172;6.974;2023-07-22T13:17:19;6.00;;;4.53;;
52512;SDS011;38422;53.172;6.974;2023-07-22T13:19:45;5.53;;;4.50;;
52512;SDS011;38422;53.172;6.974;2023-07-22T13:22:11;6.22;;;4.90;;
52512;SDS011;38422;53.172;6.974;2023-07-22T13:24:37;6.18;;;4.85;;
52512;SDS011;38422;53.172;6.974;2023-07-22T13:27:03;6.15;;;5.20;;
52512;SDS011;38422;53.172;6.974;2023-07-22T13:29:29;6.22;;;5.43;;
52512;SDS011;38422;53.172;6.974;2023-07-22T13:31:55;6.47;;;4.60;;
52512;SDS011;38422;53.172;6.974;2023-07-22T13:34:21;5.85;;;5.00;;
52512;SDS011;38422;53.172;6.974;2023-07-22T13:36:47;5.38;;;4.80;;
52512;SDS011;38422;53.172;6.974;2023-07-22T13:39:13;6.65;;;4.75;;
52512;SDS011;38422;53.172;6.974;2023-07-22T13:41:39;6.70;;;4.72;;
52512;SDS011;38422;53.172;6.974;2023-07-22T13:44:04;6.53;;;5.20;;
52512;SDS011;38422;53.172;6.974;2023-07-22T13:46:30;6.38;;;5.40;;
52512;SDS011;38422;53.172;6.974;2023-07-22T13:48:56;6.93;;;5.85;;
52512;SDS011;38422;53.172;6.974;2023-07-22T13:51:22;8.45;;;5.65;;
52512;SDS011;38422;53.172;6.974;2023-07-22T13:53:48;6.15;;;5.50;;
52512;SDS011;38422;53.172;6.974;2023-07-22T13:56:13;6.38;;;5.40;;
52512;SDS011;38422;53.172;6.974;2023-07-22T13:58:39;6.75;;;5.82;;
52512;SDS011;38422;53.172;6.974;2023-07-22T14:01:05;8.55;;;5.85;;
52512;SDS011;38422;53.172;6.974;2023-07-22T14:03:30;6.53;;;5.82;;
52512;SDS011;38422;53.172;6.974;2023-07-22T14:05:56;6.78;;;5.65;;
52512;SDS011;38422;53.172;6.974;2023-07-22T14:08:22;7.05;;;5.40;;
52512;SDS011;38422;53.172;6.974;2023-07-22T14:10:48;7.10;;;6.00;;
52512;SDS011;38422;53.172;6.974;2023-07-22T14:13:14;6.40;;;5.35;;
52512;SDS011;38422;53.172;6.974;2023-07-22T14:15:40;6.55;;;5.82;;
52512;SDS011;38422;53.172;6.974;2023-07-22T14:18:06;7.18;;;5.85;;
52512;SDS011;38422;53.172;6.974;2023-07-22T14:20:32;7.75;;;5.70;;
52512;SDS011;38422;53.172;6.974;2023-07-22T14:22:58;6.60;;;5.27;;
52512;SDS011;38422;53.172;6.974;2023-07-22T14:25:24;7.25;;;5.75;;
52512;SDS011;38422;53.172;6.974;2023-07-22T14:27:50;7.05;;;6.10;;
52512;SDS011;38422;53.172;6.974;2023-07-22T14:30:16;7.07;;;5.60;;
52512;SDS011;38422;53.172;6.974;2023-07-22T14:32:42;7.45;;;5.47;;
52512;SDS011;38422;53.172;6.974;2023-07-22T14:35:07;8.40;;;5.80;;
52512;SDS011;38422;53.172;6.974;2023-07-22T14:37:33;6.68;;;4.85;;
52512;SDS011;38422;53.172;6.974;2023-07-22T14:40:00;8.10;;;5.53;;
52512;SDS011;38422;53.172;6.974;2023-07-22T14:42:27;6.82;;;5.20;;
52512;SDS011;38422;53.172;6.974;2023-07-22T14:44:52;7.15;;;5.50;;
52512;SDS011;38422;53.172;6.974;2023-07-22T14:47:18;5.95;;;4.93;;
52512;SDS011;38422;53.172;6.974;2023-07-22T14:49:44;5.82;;;4.70;;
52512;SDS011;38422;53.172;6.974;2023-07-22T14:52:10;6.55;;;4.18;;
52512;SDS011;38422;53.172;6.974;2023-07-22T14:54:35;7.28;;;5.00;;
52512;SDS011;38422;53.172;6.974;2023-07-22T14:57:01;5.43;;;4.20;;
52512;SDS011;38422;53.172;6.974;2023-07-22T14:59:27;4.40;;;3.63;;
52512;SDS011;38422;53.172;6.974;2023-07-22T15:01:52;4.95;;;3.38;;
52512;SDS011;38422;53.172;6.974;2023-07-22T15:04:19;5.57;;;3.58;;